PWSweather.com
Personal Weather Stations
Station Observations
PENICUIKWS
PenicuikGB

PenicuikGB

Lat: 55.830932, Lon: -3.224533000000065

Elevation: 166

Station Type: Fine Offset

http://weather.penicuik.org

High Low Average
Temperature 64.9°F18.3°C 55.9°F13.3°C 60.9°F16.1°C
Dew Point 60.6°F15.9°C 52.6°F11.4°C 57.9°F14.4°C
Winds 5.9 mph 9.5 kmh 2.3 mph 3.7 kmh 4.0 mph SW6.4 kmh SW
Wind Gusts 13.0 mph20.9 kmh 3.1 mph5.0 kmh 6.0 mph9.7 kmh
Humidity 95% 83% 90%
Pressure 30.32 in1026.8 mb 30.15 in1021.0 mb -
Precipitation 0.11 in2.8 mm - -
Hour Temp Dew Point Humidity Winds Wind Gusts Pressure Precip Precip Rate Daily Precip Total
12:00 AM 56.3°F13.5°C 52.8°F11.6°C 88% 3.8 mph WNW6.1 kmh WNW 7.6 mph12.2 kmh 30.22 in1023.4 mb 0.00 in0.0 mm 0.00 in0.0 mm 0.00 in0.0 mm
12:15 AM 56.1°F13.4°C 52.6°F11.4°C 88% 4.7 mph NW7.6 kmh NW 7.6 mph12.2 kmh 30.20 in1022.7 mb 0.00 in0.0 mm 0.00 in0.0 mm 0.00 in0.0 mm
12:30 AM 55.9°F13.3°C 52.8°F11.6°C 89% 4.5 mph NNW7.2 kmh NNW 9.2 mph14.8 kmh 30.20 in1022.7 mb 0.00 in0.0 mm 0.00 in0.0 mm 0.00 in0.0 mm
12:45 AM 55.9°F13.3°C 52.8°F11.6°C 89% 4.6 mph N7.4 kmh N 7.6 mph12.2 kmh 30.19 in1022.4 mb 0.00 in0.0 mm 0.00 in0.0 mm 0.00 in0.0 mm
01:00 AM 55.9°F13.3°C 52.8°F11.6°C 89% 3.8 mph NW6.1 kmh NW 6.0 mph9.7 kmh 30.18 in1022.0 mb 0.00 in0.0 mm 0.00 in0.0 mm 0.00 in0.0 mm
01:15 AM 55.9°F13.3°C 52.8°F11.6°C 89% 4.8 mph NNE7.7 kmh NNE 9.2 mph14.8 kmh 30.17 in1021.7 mb 0.00 in0.0 mm 0.00 in0.0 mm 0.00 in0.0 mm
01:30 AM 56.3°F13.5°C 53.1°F11.7°C 89% 5.1 mph NNE8.2 kmh NNE 8.3 mph13.4 kmh 30.16 in1021.3 mb 0.00 in0.0 mm 0.00 in0.0 mm 0.00 in0.0 mm
01:45 AM 56.8°F13.8°C 53.3°F11.8°C 88% 4.4 mph NNE7.1 kmh NNE 8.3 mph13.4 kmh 30.16 in1021.3 mb 0.00 in0.0 mm 0.00 in0.0 mm 0.00 in0.0 mm
02:00 AM 57.2°F14.0°C 53.7°F12.1°C 88% 4.9 mph SSW7.9 kmh SSW 9.2 mph14.8 kmh 30.16 in1021.3 mb 0.00 in0.0 mm 0.00 in0.0 mm 0.00 in0.0 mm
02:30 AM 56.1°F13.4°C 53.8°F12.1°C 92% 2.6 mph NW4.2 kmh NW 4.5 mph7.2 kmh 30.16 in1021.3 mb 0.04 in1.0 mm 0.08 in2.0 mm 0.04 in1.0 mm
03:00 AM 56.5°F13.6°C 54.8°F12.7°C 94% 5.0 mph SSW8.0 kmh SSW 13.0 mph20.9 kmh 30.16 in1021.3 mb 0.02 in0.5 mm 0.00 in0.0 mm 0.04 in1.0 mm
03:15 AM 56.5°F13.6°C 54.8°F12.7°C 94% 5.2 mph ESE8.4 kmh ESE 9.8 mph15.8 kmh 30.16 in1021.3 mb 0.02 in0.5 mm 0.00 in0.0 mm 0.06 in1.5 mm
03:30 AM 56.7°F13.7°C 55.3°F12.9°C 95% 4.9 mph NW7.9 kmh NW 7.6 mph12.2 kmh 30.16 in1021.3 mb 0.02 in0.5 mm 0.00 in0.0 mm 0.06 in1.5 mm
03:45 AM 56.8°F13.8°C 55.4°F13.0°C 95% 3.8 mph NNW6.1 kmh NNW 5.4 mph8.7 kmh 30.16 in1021.3 mb 0.02 in0.5 mm 0.00 in0.0 mm 0.06 in1.5 mm
04:00 AM 57.2°F14.0°C 55.5°F13.1°C 94% 3.3 mph N5.3 kmh N 5.4 mph8.7 kmh 30.16 in1021.3 mb 0.02 in0.5 mm 0.00 in0.0 mm 0.06 in1.5 mm
04:15 AM 57.4°F14.1°C 56.0°F13.3°C 95% 3.3 mph SSE5.3 kmh SSE 5.4 mph8.7 kmh 30.16 in1021.3 mb 0.01 in0.3 mm 0.00 in0.0 mm 0.07 in1.8 mm
04:30 AM 57.6°F14.2°C 56.1°F13.4°C 95% 3.7 mph NNW6.0 kmh NNW 6.9 mph11.1 kmh 30.16 in1021.3 mb 0.01 in0.3 mm 0.00 in0.0 mm 0.07 in1.8 mm
05:00 AM 58.6°F14.8°C 57.2°F14.0°C 95% 3.7 mph WSW6.0 kmh WSW 5.4 mph8.7 kmh 30.15 in1021.0 mb 0.01 in0.3 mm 0.00 in0.0 mm 0.07 in1.8 mm
05:30 AM 59.4°F15.2°C 57.9°F14.4°C 95% 3.7 mph SW6.0 kmh SW 5.4 mph8.7 kmh 30.16 in1021.3 mb 0.00 in0.0 mm 0.00 in0.0 mm 0.07 in1.8 mm
05:45 AM 60.1°F15.6°C 58.7°F14.8°C 95% 4.6 mph SE7.4 kmh SE 6.0 mph9.7 kmh 30.16 in1021.3 mb 0.00 in0.0 mm 0.00 in0.0 mm 0.07 in1.8 mm
05:46 AM 60.1°F15.6°C 58.7°F14.8°C 95% 4.4 mph SE7.1 kmh SE 6.0 mph9.7 kmh 30.15 in1021.0 mb 0.00 in0.0 mm 0.00 in0.0 mm 0.07 in1.8 mm
06:00 AM 60.3°F15.7°C 58.8°F14.9°C 95% 4.3 mph WNW6.9 kmh WNW 6.0 mph9.7 kmh 30.15 in1021.0 mb 0.00 in0.0 mm 0.00 in0.0 mm 0.07 in1.8 mm
06:15 AM 60.6°F15.9°C 59.2°F15.1°C 95% 4.1 mph NE6.6 kmh NE 6.9 mph11.1 kmh 30.16 in1021.3 mb 0.00 in0.0 mm 0.00 in0.0 mm 0.07 in1.8 mm
06:30 AM 60.6°F15.9°C 59.2°F15.1°C 95% 3.3 mph NW5.3 kmh NW 5.4 mph8.7 kmh 30.17 in1021.7 mb 0.00 in0.0 mm 0.00 in0.0 mm 0.07 in1.8 mm
07:00 AM 61.0°F16.1°C 59.0°F15.0°C 93% 5.2 mph NNW8.4 kmh NNW 7.6 mph12.2 kmh 30.18 in1022.0 mb 0.00 in0.0 mm 0.00 in0.0 mm 0.07 in1.8 mm
07:15 AM 61.0°F16.1°C 59.0°F15.0°C 93% 4.4 mph N7.1 kmh N 8.3 mph13.4 kmh 30.19 in1022.4 mb 0.00 in0.0 mm 0.00 in0.0 mm 0.07 in1.8 mm
07:45 AM 61.2°F16.2°C 59.1°F15.1°C 93% 4.2 mph W6.8 kmh W 6.0 mph9.7 kmh 30.20 in1022.7 mb 0.00 in0.0 mm 0.00 in0.0 mm 0.07 in1.8 mm
08:00 AM 61.3°F16.3°C 59.3°F15.2°C 93% 5.1 mph NE8.2 kmh NE 8.3 mph13.4 kmh 30.21 in1023.0 mb 0.01 in0.3 mm 0.01 in0.3 mm 0.08 in2.0 mm
08:15 AM 61.7°F16.5°C 59.7°F15.4°C 93% 4.7 mph SE7.6 kmh SE 6.0 mph9.7 kmh 30.21 in1023.0 mb 0.01 in0.3 mm 0.00 in0.0 mm 0.08 in2.0 mm
09:00 AM 62.1°F16.7°C 59.4°F15.2°C 91% 3.9 mph S6.3 kmh S 7.6 mph12.2 kmh 30.21 in1023.0 mb 0.00 in0.0 mm 0.00 in0.0 mm 0.08 in2.0 mm
09:15 AM 62.2°F16.8°C 59.6°F15.3°C 91% 4.3 mph SW6.9 kmh SW 6.9 mph11.1 kmh 30.22 in1023.4 mb 0.00 in0.0 mm 0.00 in0.0 mm 0.08 in2.0 mm
09:30 AM 62.4°F16.9°C 59.8°F15.4°C 91% 3.0 mph ESE4.8 kmh ESE 6.0 mph9.7 kmh 30.22 in1023.4 mb 0.00 in0.0 mm 0.00 in0.0 mm 0.08 in2.0 mm
09:45 AM 62.4°F16.9°C 59.8°F15.4°C 91% 4.0 mph NW6.4 kmh NW 7.6 mph12.2 kmh 30.23 in1023.7 mb 0.00 in0.0 mm 0.00 in0.0 mm 0.08 in2.0 mm
10:00 AM 63.5°F17.5°C 60.2°F15.7°C 89% 4.5 mph S7.2 kmh S 9.2 mph14.8 kmh 30.24 in1024.0 mb 0.00 in0.0 mm 0.00 in0.0 mm 0.08 in2.0 mm
10:30 AM 63.9°F17.7°C 60.6°F15.9°C 89% 3.6 mph NNE5.8 kmh NNE 5.4 mph8.7 kmh 30.24 in1024.0 mb 0.00 in0.0 mm 0.00 in0.0 mm 0.08 in2.0 mm
10:45 AM 64.2°F17.9°C 60.6°F15.9°C 88% 5.0 mph N8.0 kmh N 9.2 mph14.8 kmh 30.24 in1024.0 mb 0.00 in0.0 mm 0.00 in0.0 mm 0.08 in2.0 mm
11:00 AM 64.0°F17.8°C 60.1°F15.6°C 87% 3.3 mph N5.3 kmh N 5.4 mph8.7 kmh 30.25 in1024.4 mb 0.00 in0.0 mm 0.00 in0.0 mm 0.08 in2.0 mm
11:15 AM 64.2°F17.9°C 60.3°F15.7°C 87% 4.4 mph SW7.1 kmh SW 9.8 mph15.8 kmh 30.25 in1024.4 mb 0.00 in0.0 mm 0.00 in0.0 mm 0.08 in2.0 mm
11:30 AM 64.9°F18.3°C 60.3°F15.7°C 85% 4.9 mph E7.9 kmh E 6.9 mph11.1 kmh 30.26 in1024.7 mb 0.00 in0.0 mm 0.00 in0.0 mm 0.08 in2.0 mm
11:45 AM 64.2°F17.9°C 59.3°F15.2°C 84% 5.7 mph SE9.2 kmh SE 10.7 mph17.2 kmh 30.26 in1024.7 mb 0.00 in0.0 mm 0.00 in0.0 mm 0.08 in2.0 mm
12:00 PM 64.2°F17.9°C 59.3°F15.2°C 84% 4.8 mph WSW7.7 kmh WSW 8.3 mph13.4 kmh 30.26 in1024.7 mb 0.00 in0.0 mm 0.00 in0.0 mm 0.08 in2.0 mm
12:15 PM 64.9°F18.3°C 60.0°F15.6°C 84% 3.9 mph NE6.3 kmh NE 6.0 mph9.7 kmh 30.26 in1024.7 mb 0.00 in0.0 mm 0.00 in0.0 mm 0.08 in2.0 mm
12:30 PM 64.6°F18.1°C 59.7°F15.4°C 84% 4.3 mph NW6.9 kmh NW 6.9 mph11.1 kmh 30.28 in1025.4 mb 0.00 in0.0 mm 0.00 in0.0 mm 0.08 in2.0 mm
12:45 PM 64.6°F18.1°C 60.0°F15.6°C 85% 4.0 mph S6.4 kmh S 9.2 mph14.8 kmh 30.27 in1025.1 mb 0.00 in0.0 mm 0.00 in0.0 mm 0.08 in2.0 mm
01:00 PM 64.8°F18.2°C 59.8°F15.4°C 84% 4.0 mph SW6.4 kmh SW 6.0 mph9.7 kmh 30.27 in1025.1 mb 0.00 in0.0 mm 0.00 in0.0 mm 0.08 in2.0 mm
01:15 PM 64.6°F18.1°C 59.3°F15.2°C 83% 4.2 mph NE6.8 kmh NE 6.9 mph11.1 kmh 30.28 in1025.4 mb 0.00 in0.0 mm 0.00 in0.0 mm 0.08 in2.0 mm
01:30 PM 64.2°F17.9°C 59.0°F15.0°C 83% 3.9 mph WSW6.3 kmh WSW 6.0 mph9.7 kmh 30.27 in1025.1 mb 0.00 in0.0 mm 0.00 in0.0 mm 0.08 in2.0 mm
01:45 PM 63.9°F17.7°C 59.0°F15.0°C 84% 4.8 mph NW7.7 kmh NW 6.0 mph9.7 kmh 30.27 in1025.1 mb 0.00 in0.0 mm 0.00 in0.0 mm 0.08 in2.0 mm
02:00 PM 63.9°F17.7°C 59.3°F15.2°C 85% 2.8 mph W4.5 kmh W 5.4 mph8.7 kmh 30.29 in1025.7 mb 0.00 in0.0 mm 0.00 in0.0 mm 0.08 in2.0 mm
02:15 PM 63.0°F17.2°C 58.7°F14.8°C 86% 4.1 mph S6.6 kmh S 8.3 mph13.4 kmh 30.28 in1025.4 mb 0.00 in0.0 mm 0.00 in0.0 mm 0.08 in2.0 mm
02:30 PM 63.1°F17.3°C 58.6°F14.8°C 85% 4.6 mph SSW7.4 kmh SSW 6.9 mph11.1 kmh 30.29 in1025.7 mb 0.00 in0.0 mm 0.00 in0.0 mm 0.08 in2.0 mm
02:45 PM 63.0°F17.2°C 58.1°F14.5°C 84% 5.2 mph ESE8.4 kmh ESE 6.9 mph11.1 kmh 30.29 in1025.7 mb 0.00 in0.0 mm 0.00 in0.0 mm 0.08 in2.0 mm
03:00 PM 63.0°F17.2°C 57.7°F14.3°C 83% 5.9 mph SSW9.5 kmh SSW 9.2 mph14.8 kmh 30.29 in1025.7 mb 0.00 in0.0 mm 0.00 in0.0 mm 0.08 in2.0 mm
03:15 PM 63.0°F17.2°C 58.4°F14.7°C 85% 3.5 mph WNW5.6 kmh WNW 5.4 mph8.7 kmh 30.28 in1025.4 mb 0.00 in0.0 mm 0.00 in0.0 mm 0.08 in2.0 mm
03:30 PM 63.1°F17.3°C 58.9°F14.9°C 86% 3.3 mph WNW5.3 kmh WNW 5.4 mph8.7 kmh 30.28 in1025.4 mb 0.00 in0.0 mm 0.00 in0.0 mm 0.08 in2.0 mm
03:45 PM 63.3°F17.4°C 58.8°F14.9°C 85% 2.6 mph WNW4.2 kmh WNW 4.5 mph7.2 kmh 30.28 in1025.4 mb 0.00 in0.0 mm 0.00 in0.0 mm 0.08 in2.0 mm
04:15 PM 63.1°F17.3°C 58.6°F14.8°C 85% 3.6 mph S5.8 kmh S 7.6 mph12.2 kmh 30.28 in1025.4 mb 0.00 in0.0 mm 0.00 in0.0 mm 0.08 in2.0 mm
04:30 PM 63.1°F17.3°C 58.6°F14.8°C 85% 2.3 mph S3.7 kmh S 3.8 mph6.1 kmh 30.29 in1025.7 mb 0.00 in0.0 mm 0.00 in0.0 mm 0.08 in2.0 mm
04:45 PM 62.6°F17.0°C 58.0°F14.4°C 85% 4.5 mph E7.2 kmh E 5.4 mph8.7 kmh 30.29 in1025.7 mb 0.00 in0.0 mm 0.00 in0.0 mm 0.08 in2.0 mm
05:00 PM 61.7°F16.5°C 58.4°F14.7°C 89% 3.3 mph SSW5.3 kmh SSW 6.0 mph9.7 kmh 30.30 in1026.1 mb 0.00 in0.0 mm 0.00 in0.0 mm 0.08 in2.0 mm
05:15 PM 61.2°F16.2°C 58.2°F14.6°C 90% 4.0 mph SW6.4 kmh SW 6.9 mph11.1 kmh 30.30 in1026.1 mb 0.00 in0.0 mm 0.00 in0.0 mm 0.08 in2.0 mm
05:30 PM 61.2°F16.2°C 58.2°F14.6°C 90% 3.3 mph NNW5.3 kmh NNW 6.0 mph9.7 kmh 30.29 in1025.7 mb 0.00 in0.0 mm 0.00 in0.0 mm 0.08 in2.0 mm
05:45 PM 61.2°F16.2°C 58.2°F14.6°C 90% 4.0 mph WSW6.4 kmh WSW 5.4 mph8.7 kmh 30.29 in1025.7 mb 0.00 in0.0 mm 0.00 in0.0 mm 0.08 in2.0 mm
05:46 PM 61.2°F16.2°C 58.2°F14.6°C 90% 4.1 mph WSW6.6 kmh WSW 6.0 mph9.7 kmh 30.29 in1025.7 mb 0.00 in0.0 mm 0.00 in0.0 mm 0.08 in2.0 mm
06:00 PM 61.3°F16.3°C 58.4°F14.7°C 90% 4.1 mph SW6.6 kmh SW 5.4 mph8.7 kmh 30.29 in1025.7 mb 0.00 in0.0 mm 0.00 in0.0 mm 0.08 in2.0 mm
06:15 PM 61.3°F16.3°C 58.4°F14.7°C 90% 3.2 mph S5.1 kmh S 6.0 mph9.7 kmh 30.30 in1026.1 mb 0.00 in0.0 mm 0.00 in0.0 mm 0.08 in2.0 mm
06:30 PM 61.3°F16.3°C 58.4°F14.7°C 90% 2.6 mph NE4.2 kmh NE 3.8 mph6.1 kmh 30.32 in1026.8 mb 0.00 in0.0 mm 0.00 in0.0 mm 0.08 in2.0 mm
06:45 PM 61.2°F16.2°C 57.9°F14.4°C 89% 2.5 mph NW4.0 kmh NW 3.8 mph6.1 kmh 30.31 in1026.4 mb 0.00 in0.0 mm 0.00 in0.0 mm 0.08 in2.0 mm
07:00 PM 60.6°F15.9°C 58.0°F14.4°C 91% 3.4 mph SW5.5 kmh SW 4.5 mph7.2 kmh 30.31 in1026.4 mb 0.01 in0.3 mm 0.01 in0.3 mm 0.09 in2.3 mm
07:15 PM 60.4°F15.8°C 58.1°F14.5°C 92% 3.1 mph SSW5.0 kmh SSW 4.5 mph7.2 kmh 30.31 in1026.4 mb 0.01 in0.3 mm 0.00 in0.0 mm 0.09 in2.3 mm
07:30 PM 60.3°F15.7°C 57.9°F14.4°C 92% 2.8 mph WNW4.5 kmh WNW 4.5 mph7.2 kmh 30.31 in1026.4 mb 0.01 in0.3 mm 0.00 in0.0 mm 0.09 in2.3 mm
07:45 PM 60.4°F15.8°C 58.4°F14.7°C 93% 3.2 mph WSW5.1 kmh WSW 4.5 mph7.2 kmh 30.31 in1026.4 mb 0.01 in0.3 mm 0.00 in0.0 mm 0.09 in2.3 mm
07:59 PM 60.4°F15.8°C 58.4°F14.7°C 93% 3.6 mph NNE5.8 kmh NNE 6.9 mph11.1 kmh 30.30 in1026.1 mb 0.00 in0.0 mm 0.00 in0.0 mm 0.09 in2.3 mm
08:00 PM 60.4°F15.8°C 58.4°F14.7°C 93% 3.6 mph NNE5.8 kmh NNE 6.9 mph11.1 kmh 30.30 in1026.1 mb 0.00 in0.0 mm 0.00 in0.0 mm 0.09 in2.3 mm
08:15 PM 60.4°F15.8°C 58.4°F14.7°C 93% 2.7 mph NW4.3 kmh NW 4.5 mph7.2 kmh 30.31 in1026.4 mb 0.00 in0.0 mm 0.00 in0.0 mm 0.09 in2.3 mm
08:30 PM 60.4°F15.8°C 58.1°F14.5°C 92% 3.4 mph NNW5.5 kmh NNW 8.3 mph13.4 kmh 30.30 in1026.1 mb 0.00 in0.0 mm 0.00 in0.0 mm 0.09 in2.3 mm
08:45 PM 60.6°F15.9°C 58.3°F14.6°C 92% 3.6 mph NW5.8 kmh NW 6.0 mph9.7 kmh 30.30 in1026.1 mb 0.00 in0.0 mm 0.00 in0.0 mm 0.09 in2.3 mm
09:15 PM 61.0°F16.1°C 58.0°F14.4°C 90% 4.7 mph W7.6 kmh W 7.6 mph12.2 kmh 30.29 in1025.7 mb 0.00 in0.0 mm 0.00 in0.0 mm 0.09 in2.3 mm
09:30 PM 61.2°F16.2°C 57.9°F14.4°C 89% 3.1 mph S5.0 kmh S 5.4 mph8.7 kmh 30.29 in1025.7 mb 0.00 in0.0 mm 0.00 in0.0 mm 0.09 in2.3 mm
09:45 PM 61.3°F16.3°C 58.1°F14.5°C 89% 2.7 mph NW4.3 kmh NW 4.5 mph7.2 kmh 30.28 in1025.4 mb 0.00 in0.0 mm 0.00 in0.0 mm 0.09 in2.3 mm
10:00 PM 61.7°F16.5°C 58.4°F14.7°C 89% 3.6 mph S5.8 kmh S 5.4 mph8.7 kmh 30.28 in1025.4 mb 0.00 in0.0 mm 0.00 in0.0 mm 0.09 in2.3 mm
10:30 PM 61.5°F16.4°C 58.3°F14.6°C 89% 2.8 mph NW4.5 kmh NW 3.1 mph5.0 kmh 30.28 in1025.4 mb 0.00 in0.0 mm 0.00 in0.0 mm 0.09 in2.3 mm
10:45 PM 61.2°F16.2°C 58.2°F14.6°C 90% 4.0 mph NW6.4 kmh NW 5.4 mph8.7 kmh 30.28 in1025.4 mb 0.01 in0.3 mm 0.04 in1.0 mm 0.11 in2.8 mm
11:15 PM 60.8°F16.0°C 58.2°F14.6°C 91% 2.9 mph SW4.7 kmh SW 5.4 mph8.7 kmh 30.27 in1025.1 mb 0.02 in0.5 mm 0.02 in0.5 mm 0.08 in2.0 mm
11:29 PM 60.6°F15.9°C 58.3°F14.6°C 92% 2.3 mph NW3.7 kmh NW 4.5 mph7.2 kmh 30.27 in1025.1 mb 0.02 in0.5 mm 0.00 in0.0 mm 0.08 in2.0 mm
11:30 PM 60.6°F15.9°C 58.3°F14.6°C 92% 2.3 mph NW3.7 kmh NW 4.5 mph7.2 kmh 30.27 in1025.1 mb 0.02 in0.5 mm 0.00 in0.0 mm 0.08 in2.0 mm
11:45 PM 60.6°F15.9°C 58.6°F14.8°C 93% 2.6 mph SE4.2 kmh SE 4.5 mph7.2 kmh 30.26 in1024.7 mb 0.01 in0.3 mm 0.00 in0.0 mm 0.08 in2.0 mm
11:59 PM 60.6°F15.9°C 58.6°F14.8°C 93% 3.5 mph SSW5.6 kmh SSW 5.4 mph8.7 kmh 30.26 in1024.7 mb 0.00 in0.0 mm 0.00 in0.0 mm 0.08 in2.0 mm